Time;durP1;ratioP1;P1;durP2;ratioP2;P2;SDS_P1;SDS_P2;PMS_P1;PMS_P2;Temp;Humidity;BMP_temperature;BMP_pressure;BME280_temperature;BME280_humidity;BME280_pressure;Samples;Min_cycle;Max_cycle;Signal;HPM_P1;HPM_P2
2023/03/08 00:01:28;;;;;;;18.70;16.95;;;4.20;99.90;;;;;;5096151;28;20212;-59
2023/03/08 00:03:55;;;;;;;21.48;14.30;;;4.20;99.90;;;;;;5096143;28;20174;-58
2023/03/08 00:06:21;;;;;;;15.57;13.20;;;4.20;99.90;;;;;;5095986;28;20333;-58
2023/03/08 00:08:48;;;;;;;17.27;13.77;;;4.10;99.90;;;;;;5095990;28;20593;-58
2023/03/08 00:11:14;;;;;;;19.13;14.07;;;4.10;99.90;;;;;;5096156;28;20630;-58
2023/03/08 00:13:40;;;;;;;18.85;14.60;;;4.10;99.90;;;;;;5096062;28;20177;-59
2023/03/08 00:16:09;;;;;;;18.27;14.68;;;4.10;99.90;;;;;;5096067;28;20182;-58
2023/03/08 00:18:36;;;;;;;16.70;13.68;;;4.20;99.90;;;;;;5095839;28;20182;-58
2023/03/08 00:21:04;;;;;;;17.25;13.75;;;4.10;99.90;;;;;;5095656;28;20306;-58
2023/03/08 00:23:30;;;;;;;18.52;13.88;;;4.20;99.90;;;;;;5095561;28;20232;-58
2023/03/08 00:25:56;;;;;;;18.90;14.60;;;4.20;99.90;;;;;;5095815;28;20603;-59
2023/03/08 00:28:21;;;;;;;18.48;15.43;;;4.20;99.90;;;;;;5095735;28;20195;-58
2023/03/08 00:30:58;;;;;;;18.90;15.50;;;4.30;99.90;;;;;;5095795;28;20182;-58
2023/03/08 00:33:24;;;;;;;19.55;15.88;;;4.30;99.90;;;;;;5095516;28;20165;-59
2023/03/08 00:36:05;;;;;;;19.20;14.98;;;4.30;99.90;;;;;;5095675;28;20229;-59
2023/03/08 00:38:32;;;;;;;21.30;16.23;;;4.30;99.90;;;;;;5095577;28;20173;-59
2023/03/08 00:40:58;;;;;;;20.17;15.50;;;4.20;99.90;;;;;;5095311;28;20279;-59
2023/03/08 00:43:24;;;;;;;20.90;16.15;;;4.20;99.90;;;;;;5095617;28;20238;-59
2023/03/08 00:45:49;;;;;;;19.23;14.85;;;4.20;99.90;;;;;;5095294;28;20185;-59
2023/03/08 00:48:15;;;;;;;19.73;15.00;;;4.20;99.90;;;;;;5095257;28;20173;-59
2023/03/08 00:50:41;;;;;;;20.92;18.90;;;4.20;99.90;;;;;;5095459;28;20181;-59
2023/03/08 00:53:07;;;;;;;18.85;14.75;;;4.20;99.90;;;;;;5095393;28;20191;-59
2023/03/08 00:55:33;;;;;;;18.80;14.32;;;4.20;99.90;;;;;;5095194;28;20636;-59
2023/03/08 00:57:59;;;;;;;19.52;14.75;;;4.20;99.90;;;;;;5094970;28;20647;-59
2023/03/08 01:00:25;;;;;;;19.48;14.35;;;4.20;99.90;;;;;;5094947;28;20201;-59
2023/03/08 01:02:51;;;;;;;23.20;20.52;;;4.20;99.90;;;;;;5095210;28;20188;-59
2023/03/08 01:05:16;;;;;;;21.55;16.10;;;4.20;99.90;;;;;;5093823;28;20181;-59
2023/03/08 01:07:42;;;;;;;19.33;15.38;;;4.10;99.90;;;;;;5095017;28;20693;-59
2023/03/08 01:10:08;;;;;;;21.92;19.80;;;4.10;99.90;;;;;;5094915;28;20662;-58
2023/03/08 01:12:35;;;;;;;19.58;16.27;;;4.20;99.90;;;;;;5094811;28;20204;-59
2023/03/08 01:15:01;;;;;;;21.85;16.35;;;4.20;99.90;;;;;;5094705;28;20261;-59
2023/03/08 01:17:27;;;;;;;21.15;16.85;;;4.20;99.90;;;;;;5094720;28;20185;-58
2023/03/08 01:19:53;;;;;;;21.80;16.02;;;4.20;99.90;;;;;;5094788;28;20366;-59
2023/03/08 01:22:18;;;;;;;19.20;15.90;;;4.20;99.90;;;;;;5094553;28;20268;-59
2023/03/08 01:24:45;;;;;;;22.58;16.95;;;4.20;99.90;;;;;;5094709;28;20539;-59
2023/03/08 01:27:11;;;;;;;20.80;16.77;;;4.20;99.90;;;;;;5094488;28;20636;-59
2023/03/08 01:29:37;;;;;;;20.98;15.63;;;4.20;99.90;;;;;;5094453;28;20205;-59
2023/03/08 01:32:03;;;;;;;20.20;16.27;;;4.20;99.90;;;;;;5094527;28;20251;-59
2023/03/08 01:34:28;;;;;;;19.33;15.50;;;4.20;99.90;;;;;;5094844;28;20184;-59
2023/03/08 01:36:54;;;;;;;19.38;15.73;;;4.20;99.90;;;;;;5094732;28;20709;-58
2023/03/08 01:39:20;;;;;;;20.60;18.75;;;4.20;99.90;;;;;;5094198;28;20692;-59
2023/03/08 01:41:45;;;;;;;19.83;15.07;;;4.20;99.90;;;;;;5094217;28;20199;-59
2023/03/08 01:44:21;;;;;;;18.88;15.13;;;4.20;99.90;;;;;;5094177;28;20227;-59
2023/03/08 01:46:48;;;;;;;20.23;15.13;;;4.20;99.90;;;;;;5094417;28;20277;-59
2023/03/08 01:49:21;;;;;;;19.90;17.63;;;4.20;99.90;;;;;;5094242;28;20177;-59
2023/03/08 01:52:05;;;;;;;16.95;13.45;;;4.10;99.90;;;;;;5094154;28;20639;-58
2023/03/08 01:54:36;;;;;;;16.40;14.07;;;4.10;99.90;;;;;;5094076;28;20647;-59
2023/03/08 01:57:15;;;;;;;16.70;13.82;;;3.90;99.90;;;;;;5093852;28;20174;-59
2023/03/08 01:59:42;;;;;;;17.23;13.20;;;4.00;99.90;;;;;;5094012;28;20266;-59
2023/03/08 02:02:09;;;;;;;17.80;13.43;;;4.00;99.90;;;;;;5094138;28;20174;-58
2023/03/08 02:04:35;;;;;;;17.70;14.10;;;4.00;99.90;;;;;;5093912;28;20188;-58
2023/03/08 02:07:01;;;;;;;18.05;14.43;;;4.10;99.90;;;;;;5093790;28;20209;-59
2023/03/08 02:09:27;;;;;;;16.70;13.90;;;4.00;99.90;;;;;;5093728;28;20208;-59
2023/03/08 02:11:56;;;;;;;16.33;13.23;;;4.00;99.90;;;;;;5093912;28;20177;-59
2023/03/08 02:14:23;;;;;;;16.60;13.43;;;4.10;99.90;;;;;;5093568;28;20188;-59
2023/03/08 02:16:49;;;;;;;18.15;16.55;;;3.90;99.90;;;;;;5093804;28;20184;-59
2023/03/08 02:19:34;;;;;;;16.52;12.88;;;4.00;99.90;;;;;;5093691;28;20636;-59
2023/03/08 02:22:10;;;;;;;17.52;13.68;;;4.00;99.90;;;;;;5093332;28;20559;-59
2023/03/08 02:24:36;;;;;;;17.75;13.15;;;3.90;99.90;;;;;;5093481;28;20577;-59
2023/03/08 02:27:08;;;;;;;18.10;13.80;;;3.90;99.90;;;;;;5093674;28;20233;-59
2023/03/08 02:29:34;;;;;;;19.20;14.35;;;3.90;99.90;;;;;;5092344;28;20241;-59
2023/03/08 02:32:00;;;;;;;20.58;15.68;;;4.00;99.90;;;;;;5093437;28;20632;-59
2023/03/08 02:34:25;;;;;;;20.83;15.68;;;3.90;99.90;;;;;;5093351;28;20173;-59
2023/03/08 02:36:51;;;;;;;20.27;15.83;;;3.90;99.90;;;;;;5093249;28;20654;-59
2023/03/08 02:39:16;;;;;;;21.33;15.25;;;3.90;99.90;;;;;;5093520;28;20268;-59
2023/03/08 02:41:42;;;;;;;22.63;15.57;;;3.90;99.90;;;;;;5093361;28;20217;-59
2023/03/08 02:44:08;;;;;;;22.10;19.88;;;3.90;99.90;;;;;;5092554;28;20179;-59
2023/03/08 02:46:34;;;;;;;21.75;16.75;;;3.90;99.90;;;;;;5093324;28;20589;-59
2023/03/08 02:49:00;;;;;;;25.77;18.13;;;4.00;99.90;;;;;;5093121;28;20375;-59
2023/03/08 02:51:25;;;;;;;25.60;18.63;;;4.10;99.90;;;;;;5093347;28;20592;-59
2023/03/08 02:53:51;;;;;;;26.07;18.27;;;4.00;99.90;;;;;;5093246;28;20181;-59
2023/03/08 02:56:17;;;;;;;26.27;18.75;;;4.10;99.90;;;;;;5093223;28;20177;-59
2023/03/08 02:58:42;;;;;;;28.75;19.80;;;4.10;99.90;;;;;;5093151;28;20628;-59
2023/03/08 03:01:12;;;;;;;29.43;19.90;;;4.00;99.90;;;;;;5093136;28;20375;-59
2023/03/08 03:03:38;;;;;;;30.10;20.88;;;4.00;99.90;;;;;;5093011;28;20264;-59
2023/03/08 03:06:04;;;;;;;31.13;22.95;;;4.00;99.90;;;;;;5093503;28;20224;-59
2023/03/08 03:08:30;;;;;;;30.42;20.83;;;4.00;99.90;;;;;;5093203;28;20206;-59
2023/03/08 03:10:56;;;;;;;30.00;20.75;;;4.10;99.90;;;;;;5093090;28;20212;-59
2023/03/08 03:13:22;;;;;;;30.00;20.37;;;4.00;99.90;;;;;;5093041;28;20215;-59
2023/03/08 03:15:47;;;;;;;30.03;21.60;;;4.00;99.90;;;;;;5092937;28;20181;-59
2023/03/08 03:18:13;;;;;;;28.47;20.77;;;4.00;99.90;;;;;;5092864;28;20180;-59
2023/03/08 03:20:38;;;;;;;26.27;19.03;;;4.00;99.90;;;;;;5093012;28;20665;-59
2023/03/08 03:23:05;;;;;;;30.43;20.57;;;3.90;99.90;;;;;;5092925;28;20687;-59
2023/03/08 03:25:31;;;;;;;27.93;18.43;;;3.90;99.90;;;;;;5093063;28;20181;-59
2023/03/08 03:27:56;;;;;;;23.88;16.33;;;3.90;99.90;;;;;;5092983;28;20186;-59
2023/03/08 03:30:22;;;;;;;21.67;19.47;;;3.90;99.90;;;;;;5092847;28;20545;-59
2023/03/08 03:32:48;;;;;;;19.83;17.83;;;3.80;99.90;;;;;;5092706;28;20180;-59
2023/03/08 03:35:13;;;;;;;18.17;12.63;;;3.80;99.90;;;;;;5092979;28;20173;-59
2023/03/08 03:37:39;;;;;;;16.77;11.70;;;3.90;99.90;;;;;;5092879;28;20517;-59
2023/03/08 03:40:05;;;;;;;17.38;12.18;;;3.80;99.90;;;;;;5092755;28;20205;-59
2023/03/08 03:42:31;;;;;;;19.80;12.52;;;3.80;99.90;;;;;;5093062;28;20226;-59
2023/03/08 03:44:57;;;;;;;17.13;12.63;;;3.70;99.90;;;;;;5091542;28;20179;-59
2023/03/08 03:47:23;;;;;;;17.33;12.07;;;3.70;99.90;;;;;;5092605;28;20177;-58
2023/03/08 03:49:48;;;;;;;17.13;11.53;;;3.60;99.90;;;;;;5092856;28;20655;-59
2023/03/08 03:52:14;;;;;;;15.80;10.60;;;3.60;99.90;;;;;;5093061;28;20213;-59
2023/03/08 03:54:39;;;;;;;14.50;10.83;;;3.60;99.90;;;;;;5093703;28;20181;-59
2023/03/08 03:57:05;;;;;;;15.60;11.07;;;3.60;99.90;;;;;;5096360;28;20231;-59
2023/03/08 03:59:32;;;;;;;16.43;11.67;;;3.50;99.90;;;;;;5096172;28;20177;-59
2023/03/08 04:01:58;;;;;;;17.87;10.30;;;3.40;99.90;;;;;;5096084;28;20528;-59
2023/03/08 04:04:24;;;;;;;14.83;10.77;;;3.50;99.90;;;;;;5096143;28;20250;-59
2023/03/08 04:06:49;;;;;;;13.90;11.03;;;3.40;99.90;;;;;;5096095;28;20548;-59
2023/03/08 04:09:17;;;;;;;17.00;10.80;;;3.50;99.90;;;;;;5096146;28;20170;-59
2023/03/08 04:11:43;;;;;;;14.97;10.30;;;3.40;99.90;;;;;;5096103;28;20713;-59
2023/03/08 04:14:09;;;;;;;15.53;10.33;;;3.40;99.90;;;;;;5096090;28;20198;-59
2023/03/08 04:16:36;;;;;;;14.80;10.00;;;3.30;99.90;;;;;;5095905;28;20174;-59
2023/03/08 04:19:09;;;;;;;15.07;10.70;;;3.20;99.90;;;;;;5095822;28;20268;-59
2023/03/08 04:21:34;;;;;;;18.10;12.00;;;3.20;99.90;;;;;;5095839;28;20267;-59
2023/03/08 04:24:00;;;;;;;17.77;11.97;;;3.20;99.90;;;;;;5095635;28;20236;-59
2023/03/08 04:26:26;;;;;;;15.53;11.17;;;3.20;99.90;;;;;;5095783;28;20177;-59
2023/03/08 04:28:51;;;;;;;15.30;10.93;;;3.10;99.90;;;;;;5095710;28;20539;-59
2023/03/08 04:31:23;;;;;;;17.70;12.57;;;3.00;99.90;;;;;;5095594;28;20190;-59
2023/03/08 04:33:49;;;;;;;21.37;14.00;;;2.90;99.90;;;;;;5095766;28;20633;-59
2023/03/08 04:36:16;;;;;;;18.03;12.37;;;2.90;99.90;;;;;;5095694;28;20219;-59
2023/03/08 04:38:42;;;;;;;18.07;16.27;;;2.90;99.90;;;;;;5095550;28;20548;-59
2023/03/08 04:41:11;;;;;;;18.03;16.13;;;2.80;99.90;;;;;;5095387;28;20243;-59
2023/03/08 04:43:45;;;;;;;17.30;11.87;;;2.80;99.90;;;;;;5095384;28;20210;-59
2023/03/08 04:46:12;;;;;;;19.13;12.40;;;2.70;99.90;;;;;;5095555;28;20635;-59
2023/03/08 04:48:38;;;;;;;16.23;11.43;;;2.80;99.90;;;;;;5095397;28;20181;-59
2023/03/08 04:51:04;;;;;;;16.30;10.67;;;2.80;99.90;;;;;;5095294;28;20185;-59
2023/03/08 04:53:31;;;;;;;17.30;11.57;;;2.80;99.90;;;;;;5095250;28;20211;-59
2023/03/08 04:55:59;;;;;;;16.47;11.87;;;2.60;99.90;;;;;;5095193;28;20505;-59
2023/03/08 04:58:25;;;;;;;15.03;10.07;;;2.50;99.90;;;;;;5095074;28;20197;-59
2023/03/08 05:00:51;;;;;;;16.53;10.27;;;2.40;99.90;;;;;;5095103;28;20295;-59
2023/03/08 05:03:17;;;;;;;15.60;9.27;;;2.50;99.90;;;;;;5095050;28;20205;-59
2023/03/08 05:05:47;;;;;;;14.43;9.83;;;2.60;99.90;;;;;;5094545;28;20169;-59
2023/03/08 05:08:13;;;;;;;13.53;9.07;;;2.50;99.90;;;;;;5094674;28;20199;-59
2023/03/08 05:10:39;;;;;;;12.40;9.63;;;2.50;99.90;;;;;;5094886;28;20181;-59
2023/03/08 05:13:04;;;;;;;15.20;9.97;;;2.50;99.90;;;;;;5093441;28;20188;-59
2023/03/08 05:15:30;;;;;;;12.43;8.43;;;2.40;99.90;;;;;;5094956;28;20185;-59
2023/03/08 05:17:56;;;;;;;13.37;9.20;;;2.30;99.90;;;;;;5094716;28;20238;-59
2023/03/08 05:20:21;;;;;;;14.60;10.53;;;2.20;99.90;;;;;;5094743;28;20217;-59
2023/03/08 05:22:47;;;;;;;13.93;9.83;;;2.30;99.90;;;;;;5094982;28;20266;-59
2023/03/08 05:25:13;;;;;;;12.17;8.90;;;2.30;99.90;;;;;;5094578;28;20234;-59
2023/03/08 05:27:38;;;;;;;14.00;9.63;;;2.30;99.90;;;;;;5094528;28;20276;-59
2023/03/08 05:30:05;;;;;;;14.97;10.77;;;2.30;99.90;;;;;;5094715;28;20183;-60
2023/03/08 05:32:30;;;;;;;14.73;10.43;;;2.20;99.90;;;;;;5094591;28;20188;-59
2023/03/08 05:34:56;;;;;;;15.07;10.13;;;2.20;99.90;;;;;;5094484;28;20177;-59
2023/03/08 05:37:24;;;;;;;12.93;9.37;;;2.30;99.90;;;;;;5094389;28;20185;-59
2023/03/08 05:39:50;;;;;;;13.00;8.90;;;2.20;99.90;;;;;;5094193;28;20230;-59
2023/03/08 05:42:17;;;;;;;10.53;6.83;;;2.10;99.90;;;;;;5094209;28;20211;-59
2023/03/08 05:44:42;;;;;;;11.53;8.30;;;2.20;99.90;;;;;;5094401;28;20177;-59
2023/03/08 05:47:08;;;;;;;12.47;8.93;;;2.30;99.90;;;;;;5094164;28;20261;-59
2023/03/08 05:49:34;;;;;;;14.40;11.63;;;2.10;99.90;;;;;;5094195;28;20177;-59
2023/03/08 05:51:59;;;;;;;12.37;8.93;;;2.20;99.90;;;;;;5094163;28;20191;-59
2023/03/08 05:54:25;;;;;;;14.50;10.57;;;2.00;99.90;;;;;;5094091;28;20266;-59
2023/03/08 05:56:51;;;;;;;12.27;9.20;;;2.10;99.90;;;;;;5094198;28;20632;-59
2023/03/08 05:59:17;;;;;;;12.17;8.73;;;2.10;99.90;;;;;;5094078;28;20536;-59
2023/03/08 06:01:42;;;;;;;11.30;8.73;;;2.10;99.90;;;;;;5093885;28;20297;-60
2023/03/08 06:04:08;;;;;;;10.40;7.40;;;2.10;99.90;;;;;;5093827;28;20174;-60
2023/03/08 06:06:34;;;;;;;8.43;7.03;;;2.00;99.90;;;;;;5093789;28;20705;-60
2023/03/08 06:08:59;;;;;;;10.23;7.53;;;2.00;99.90;;;;;;5093676;28;20185;-60
2023/03/08 06:11:25;;;;;;;10.70;7.73;;;1.90;99.90;;;;;;5093621;28;20233;-60
2023/03/08 06:13:51;;;;;;;10.47;7.70;;;1.90;99.90;;;;;;5093923;28;20629;-60
2023/03/08 06:16:17;;;;;;;11.97;8.73;;;1.90;99.90;;;;;;5093812;28;20209;-60
2023/03/08 06:18:43;;;;;;;14.37;10.27;;;1.90;99.90;;;;;;5093563;28;20239;-59
2023/03/08 06:21:14;;;;;;;11.87;8.93;;;2.00;99.90;;;;;;5093528;28;20245;-59
2023/03/08 06:23:40;;;;;;;8.73;7.43;;;1.90;99.90;;;;;;5093718;28;20233;-59
2023/03/08 06:26:07;;;;;;;9.37;8.30;;;2.00;99.90;;;;;;5093395;28;20220;-59
2023/03/08 06:28:34;;;;;;;8.43;7.30;;;2.10;99.90;;;;;;5093613;28;20177;-59
2023/03/08 06:30:59;;;;;;;9.43;7.43;;;2.10;99.90;;;;;;5093789;28;20203;-59
2023/03/08 06:33:28;;;;;;;8.13;6.67;;;2.10;99.90;;;;;;5093477;28;20659;-59
2023/03/08 06:36:12;;;;;;;9.20;7.20;;;2.10;99.90;;;;;;5093296;28;20168;-60
2023/03/08 06:38:39;;;;;;;9.13;7.90;;;2.10;99.90;;;;;;5093616;28;20182;-59
2023/03/08 06:41:07;;;;;;;7.97;6.03;;;1.90;99.90;;;;;;5093194;28;20538;-60
2023/03/08 06:43:32;;;;;;;7.30;5.70;;;2.00;99.90;;;;;;5093373;28;20370;-60
2023/03/08 06:46:02;;;;;;;8.83;5.93;;;2.00;99.90;;;;;;5093370;28;20667;-59
2023/03/08 06:48:27;;;;;;;6.87;5.57;;;2.00;99.90;;;;;;5093241;28;20177;-59
2023/03/08 06:50:53;;;;;;;7.53;6.07;;;1.90;99.90;;;;;;5093120;28;20238;-60
2023/03/08 06:53:19;;;;;;;7.03;5.43;;;1.80;99.90;;;;;;5093364;28;20271;-60
2023/03/08 06:55:44;;;;;;;6.37;5.10;;;1.80;99.90;;;;;;5093269;28;20231;-60
2023/03/08 06:58:10;;;;;;;6.57;5.27;;;1.80;99.90;;;;;;5093228;28;20204;-60
2023/03/08 07:00:36;;;;;;;6.43;5.30;;;1.70;99.90;;;;;;5093155;28;20537;-59
2023/03/08 07:03:02;;;;;;;6.37;5.40;;;1.70;99.90;;;;;;5093147;28;20628;-59
2023/03/08 07:05:27;;;;;;;7.53;5.33;;;1.80;99.90;;;;;;5092895;28;20523;-59
2023/03/08 07:07:53;;;;;;;6.80;5.80;;;1.80;99.90;;;;;;5093288;28;20170;-60
2023/03/08 07:10:20;;;;;;;7.57;5.80;;;1.80;99.90;;;;;;5093132;28;20585;-59
2023/03/08 07:12:50;;;;;;;7.37;6.00;;;1.80;99.90;;;;;;5093188;28;20539;-59
2023/03/08 07:15:17;;;;;;;8.90;7.70;;;1.80;99.90;;;;;;5093033;28;20178;-60
2023/03/08 07:17:48;;;;;;;7.67;6.63;;;1.80;99.90;;;;;;5092903;28;20623;-59
2023/03/08 07:20:15;;;;;;;8.37;7.47;;;1.80;99.90;;;;;;5092871;28;20244;-59
2023/03/08 07:22:42;;;;;;;6.57;5.13;;;1.80;99.90;;;;;;5092853;28;20253;-59
2023/03/08 07:25:09;;;;;;;7.37;6.57;;;1.80;99.90;;;;;;5093024;28;20177;-59
2023/03/08 07:27:35;;;;;;;6.10;5.50;;;1.80;99.90;;;;;;5092923;28;20171;-59
2023/03/08 07:30:02;;;;;;;7.47;5.50;;;1.80;99.90;;;;;;5094399;28;20274;-59
2023/03/08 07:32:28;;;;;;;5.73;5.23;;;1.80;99.90;;;;;;5096630;28;20209;-59
2023/03/08 07:34:57;;;;;;;6.10;5.03;;;1.80;99.90;;;;;;5096649;28;20204;-59
2023/03/08 07:37:23;;;;;;;5.07;4.57;;;1.90;99.90;;;;;;5096845;28;20217;-59
2023/03/08 07:39:49;;;;;;;6.73;5.27;;;1.80;99.90;;;;;;5096700;28;20231;-59
2023/03/08 07:42:15;;;;;;;6.23;5.30;;;1.80;99.90;;;;;;5096676;28;20185;-59
2023/03/08 07:44:41;;;;;;;15.27;11.57;;;1.70;99.90;;;;;;5096602;28;20226;-59
2023/03/08 07:47:07;;;;;;;7.70;6.73;;;1.70;99.90;;;;;;5096431;28;20174;-59
2023/03/08 07:49:33;;;;;;;9.30;6.40;;;1.90;99.90;;;;;;5096669;28;20173;-59
2023/03/08 07:51:58;;;;;;;21.27;15.43;;;1.80;99.90;;;;;;5096407;28;20538;-59
2023/03/08 07:54:24;;;;;;;9.00;7.73;;;1.90;99.90;;;;;;5096286;28;20687;-59
2023/03/08 07:56:54;;;;;;;9.60;8.27;;;2.10;99.90;;;;;;5096451;28;20705;-59
2023/03/08 07:59:20;;;;;;;8.30;6.87;;;2.10;99.90;;;;;;5096213;28;20235;-59
2023/03/08 08:01:46;;;;;;;12.13;10.30;;;2.10;99.90;;;;;;5096079;28;20698;-59
2023/03/08 08:04:12;;;;;;;8.30;7.50;;;2.00;99.90;;;;;;5096350;28;20185;-59
2023/03/08 08:06:38;;;;;;;23.73;20.90;;;1.90;99.90;;;;;;5096272;28;20593;-59
2023/03/08 08:09:05;;;;;;;9.50;8.50;;;1.90;99.90;;;;;;5096131;28;20176;-59
2023/03/08 08:11:31;;;;;;;10.97;9.83;;;2.00;99.90;;;;;;5094908;28;20520;-59
2023/03/08 08:13:57;;;;;;;9.83;8.90;;;1.90;99.90;;;;;;5096032;28;20187;-59
2023/03/08 08:16:24;;;;;;;9.27;8.33;;;1.90;99.90;;;;;;5095840;28;20174;-59
2023/03/08 08:18:51;;;;;;;11.73;10.53;;;1.90;99.90;;;;;;5096110;28;20181;-59
2023/03/08 08:21:17;;;;;;;9.30;8.40;;;1.80;99.90;;;;;;5095907;28;20205;-59
2023/03/08 08:23:43;;;;;;;10.47;9.37;;;1.80;99.90;;;;;;5095534;28;20227;-59
2023/03/08 08:26:12;;;;;;;9.40;8.47;;;1.90;99.90;;;;;;5095664;28;20559;-59
2023/03/08 08:28:40;;;;;;;10.23;9.13;;;1.80;99.90;;;;;;5095740;28;20176;-59
2023/03/08 08:31:08;;;;;;;9.77;8.77;;;2.00;99.90;;;;;;5095529;28;20210;-59
2023/03/08 08:33:34;;;;;;;9.20;8.30;;;2.00;99.90;;;;;;5095589;28;20234;-59
2023/03/08 08:36:06;;;;;;;10.00;8.07;;;2.10;99.90;;;;;;5095514;28;20625;-59
2023/03/08 08:38:32;;;;;;;10.33;8.90;;;2.10;99.90;;;;;;5095620;28;20627;-59
2023/03/08 08:41:00;;;;;;;10.20;9.20;;;2.10;99.90;;;;;;5094184;28;20211;-59
2023/03/08 08:43:25;;;;;;;10.50;8.67;;;2.00;99.90;;;;;;5095248;28;20675;-59
2023/03/08 08:45:54;;;;;;;10.83;9.73;;;2.00;99.90;;;;;;5095534;28;20186;-60
2023/03/08 08:48:19;;;;;;;11.53;10.43;;;2.10;99.90;;;;;;5095482;28;20197;-59
2023/03/08 08:50:45;;;;;;;9.90;8.83;;;2.20;99.90;;;;;;5095418;28;20177;-59
2023/03/08 08:53:11;;;;;;;9.00;8.00;;;2.20;99.90;;;;;;5095580;28;20184;-59
2023/03/08 08:55:37;;;;;;;9.27;7.80;;;2.20;99.90;;;;;;5095269;28;20172;-59
2023/03/08 08:58:04;;;;;;;9.57;8.13;;;2.20;99.90;;;;;;5095032;28;20207;-59
2023/03/08 09:00:31;;;;;;;8.83;7.60;;;2.30;99.90;;;;;;5095310;28;20210;-59
2023/03/08 09:02:56;;;;;;;9.43;8.20;;;2.20;99.90;;;;;;5094992;28;20504;-59
2023/03/08 09:05:22;;;;;;;8.80;7.90;;;2.10;99.90;;;;;;5095122;28;20184;-59
2023/03/08 09:07:48;;;;;;;9.30;8.40;;;2.20;99.90;;;;;;5095020;28;20195;-59
2023/03/08 09:10:14;;;;;;;9.43;8.50;;;2.20;99.90;;;;;;5094931;28;20540;-59
2023/03/08 09:12:41;;;;;;;10.20;9.10;;;2.10;99.90;;;;;;5094798;28;20184;-60
2023/03/08 09:15:09;;;;;;;9.53;8.17;;;2.20;99.90;;;;;;5094950;28;20181;-59
2023/03/08 09:17:38;;;;;;;12.67;9.97;;;2.30;99.90;;;;;;5094762;28;20577;-59
2023/03/08 09:20:05;;;;;;;10.77;8.70;;;2.30;99.90;;;;;;5094733;28;20246;-59
2023/03/08 09:22:31;;;;;;;9.83;8.83;;;2.40;99.90;;;;;;5094481;28;20237;-59
2023/03/08 09:24:57;;;;;;;8.57;7.67;;;2.50;99.90;;;;;;5094676;28;20188;-59
2023/03/08 09:27:23;;;;;;;8.53;7.73;;;2.60;99.90;;;;;;5094494;28;20185;-60
2023/03/08 09:29:48;;;;;;;9.80;8.80;;;2.70;99.90;;;;;;5094739;28;20197;-59
2023/03/08 09:32:14;;;;;;;8.83;7.93;;;2.70;99.90;;;;;;5093232;28;20181;-59
2023/03/08 09:34:40;;;;;;;9.10;8.13;;;2.60;99.90;;;;;;5094563;28;20178;-60
2023/03/08 09:37:07;;;;;;;9.43;8.37;;;2.70;99.90;;;;;;5094666;28;20173;-60
2023/03/08 09:39:33;;;;;;;10.00;8.27;;;2.80;99.90;;;;;;5094333;28;20168;-59
2023/03/08 09:42:01;;;;;;;9.53;8.53;;;2.80;99.90;;;;;;5094168;28;20545;-60
2023/03/08 09:44:26;;;;;;;9.83;8.83;;;2.70;99.90;;;;;;5094391;28;20169;-61
2023/03/08 09:47:12;;;;;;;10.07;9.07;;;2.90;99.90;;;;;;5094314;28;20174;-61
2023/03/08 09:49:41;;;;;;;9.27;8.30;;;2.90;99.90;;;;;;5094247;28;20628;-60
2023/03/08 09:52:37;;;;;;;10.10;9.10;;;3.00;99.90;;;;;;5093664;28;20264;-60
2023/03/08 09:55:11;;;;;;;11.47;9.37;;;2.90;99.90;;;;;;5094226;28;20173;-61
2023/03/08 09:57:44;;;;;;;10.77;9.67;;;3.10;99.90;;;;;;5094168;28;20177;-60
2023/03/08 10:00:19;;;;;;;10.67;9.57;;;3.10;99.90;;;;;;5094033;28;20209;-60
2023/03/08 10:03:09;;;;;;;20.67;15.47;;;3.20;99.90;;;;;;5093934;28;20652;-60
2023/03/08 10:05:41;;;;;;;55.30;27.40;;;3.40;99.90;;;;;;5094081;28;20173;-60
2023/03/08 10:08:16;;;;;;;16.10;12.00;;;3.30;99.90;;;;;;5093999;28;20177;-60
2023/03/08 10:10:59;;;;;;;14.03;11.23;;;3.40;99.90;;;;;;5093834;28;20524;-61
2023/03/08 10:13:28;;;;;;;13.73;12.13;;;3.20;99.90;;;;;;5094001;28;20156;-60
2023/03/08 10:16:17;;;;;;;12.23;10.93;;;3.20;99.90;;;;;;5093872;28;20227;-60
2023/03/08 10:18:45;;;;;;;11.27;10.17;;;3.10;99.90;;;;;;5093081;28;20183;-60
2023/03/08 10:21:16;;;;;;;11.83;10.60;;;3.10;99.90;;;;;;5093391;28;20611;-60
2023/03/08 10:23:45;;;;;;;12.10;10.90;;;2.90;99.90;;;;;;5093241;28;20225;-60
2023/03/08 10:26:12;;;;;;;11.63;9.97;;;3.00;99.90;;;;;;5093633;28;20609;-60
2023/03/08 10:28:38;;;;;;;12.40;11.13;;;2.80;99.90;;;;;;5093614;28;20259;-60
2023/03/08 10:31:15;;;;;;;12.63;11.33;;;2.90;99.90;;;;;;5093481;28;20239;-60
2023/03/08 10:33:41;;;;;;;13.20;11.80;;;3.00;99.90;;;;;;5093479;28;20659;-59
2023/03/08 10:36:24;;;;;;;15.60;14.00;;;3.00;99.90;;;;;;5093352;28;20247;-60
2023/03/08 10:39:16;;;;;;;13.17;11.07;;;3.00;99.90;;;;;;5093369;28;20511;-59
2023/03/08 10:41:58;;;;;;;12.70;11.33;;;2.80;99.90;;;;;;5091261;28;20232;-60
2023/03/08 10:44:35;;;;;;;12.93;11.47;;;2.80;99.90;;;;;;5093110;28;20661;-59
2023/03/08 10:47:16;;;;;;;14.67;13.17;;;3.10;99.90;;;;;;5093277;28;20691;-60
2023/03/08 10:49:42;;;;;;;13.47;12.07;;;3.00;99.90;;;;;;5093439;28;20170;-60
2023/03/08 10:52:23;;;;;;;14.60;13.10;;;3.00;99.90;;;;;;5093229;28;20237;-59
2023/03/08 10:55:00;;;;;;;15.03;13.00;;;3.20;99.90;;;;;;5093158;28;20531;-60
2023/03/08 10:57:27;;;;;;;13.10;11.67;;;3.20;99.90;;;;;;5093383;28;20174;-60
2023/03/08 10:59:53;;;;;;;16.47;13.07;;;3.30;99.90;;;;;;5093204;28;20227;-60
2023/03/08 11:02:21;;;;;;;14.13;12.63;;;3.20;99.90;;;;;;5093241;28;20178;-59
2023/03/08 11:04:58;;;;;;;13.97;12.40;;;3.40;99.90;;;;;;5094506;28;20508;-59
2023/03/08 11:07:32;;;;;;;14.37;12.87;;;3.60;99.90;;;;;;5097308;28;20207;-60
2023/03/08 11:10:15;;;;;;;15.20;13.43;;;3.40;99.90;;;;;;5097457;28;20263;-60
2023/03/08 11:12:42;;;;;;;14.10;12.60;;;3.40;99.90;;;;;;5097367;28;20188;-60
2023/03/08 11:15:17;;;;;;;16.27;13.73;;;3.40;99.90;;;;;;5097167;28;20264;-60
2023/03/08 11:18:20;;;;;;;14.60;12.93;;;3.40;99.90;;;;;;5097028;28;20176;-60
2023/03/08 11:20:54;;;;;;;14.57;13.07;;;3.30;99.90;;;;;;5096946;28;20544;-60
2023/03/08 11:23:22;;;;;;;14.77;12.53;;;3.40;99.90;;;;;;5097004;28;20225;-60
2023/03/08 11:26:03;;;;;;;17.40;14.67;;;3.60;99.90;;;;;;5096881;28;20218;-60
2023/03/08 11:28:28;;;;;;;15.20;13.50;;;3.60;99.90;;;;;;5097128;28;20185;-60
2023/03/08 11:31:26;;;;;;;15.88;13.43;;;3.30;99.90;;;;;;5096963;28;20180;-60
2023/03/08 11:34:28;;;;;;;16.87;15.07;;;3.30;99.90;;;;;;5096744;28;20166;-59
2023/03/08 11:37:22;;;;;;;18.60;15.80;;;3.20;99.90;;;;;;5096895;28;20177;-60
2023/03/08 11:40:13;;;;;;;16.03;14.27;;;3.30;99.90;;;;;;5096716;28;20176;-59
2023/03/08 11:43:19;;;;;;;15.03;13.43;;;3.20;99.90;;;;;;5074947;28;20186;-60
2023/03/08 11:45:56;;;;;;;20.20;17.57;;;3.40;99.90;;;;;;5090779;28;20191;-61
2023/03/08 11:48:29;;;;;;;17.37;15.57;;;3.40;99.90;;;;;;5096585;28;20170;-60
2023/03/08 11:51:34;;;;;;;19.63;17.17;;;3.30;99.90;;;;;;5096492;28;20190;-60
2023/03/08 11:54:08;;;;;;;23.20;19.02;;;3.30;99.90;;;;;;5071539;28;20205;-60
2023/03/08 11:56:38;;;;;;;20.17;17.13;;;3.30;99.90;;;;;;5096505;28;20173;-60
2023/03/08 11:59:16;;;;;;;19.23;15.80;;;3.10;99.90;;;;;;5096271;28;20624;-60
2023/03/08 12:02:09;;;;;;;18.03;15.90;;;3.20;99.90;;;;;;5096094;28;20211;-61
2023/03/08 12:04:47;;;;;;;19.33;16.40;;;3.30;99.90;;;;;;5096007;28;20647;-61
2023/03/08 12:07:29;;;;;;;20.53;17.10;;;3.10;99.90;;;;;;5096262;28;20242;-61
2023/03/08 12:10:03;;;;;;;19.43;16.87;;;3.20;99.90;;;;;;5096035;28;20235;-61
2023/03/08 12:12:38;;;;;;;19.90;17.10;;;3.30;99.90;;;;;;5096251;28;20180;-61
2023/03/08 12:15:28;;;;;;;20.10;16.57;;;3.10;99.90;;;;;;5095852;28;20253;-60
2023/03/08 12:18:21;;;;;;;21.87;19.47;;;3.00;99.90;;;;;;5095951;28;20180;-60
2023/03/08 12:20:49;;;;;;;46.00;40.27;;;3.30;99.90;;;;;;5096059;28;20200;-61
2023/03/08 12:23:27;;;;;;;26.03;23.83;;;3.40;99.90;;;;;;5095844;28;20236;-60
2023/03/08 12:26:22;;;;;;;23.90;20.83;;;3.40;99.90;;;;;;5095861;28;20656;-61
2023/03/08 12:28:58;;;;;;;22.13;19.37;;;3.50;99.90;;;;;;5095704;28;20315;-60
2023/03/08 12:31:31;;;;;;;24.40;21.40;;;3.80;99.90;;;;;;5095944;28;20713;-60
2023/03/08 12:33:58;;;;;;;24.42;20.77;;;3.70;99.90;;;;;;5095811;28;20177;-61
2023/03/08 12:36:39;;;;;;;23.20;20.40;;;3.70;99.90;;;;;;5095682;28;20165;-60
2023/03/08 12:39:22;;;;;;;25.17;22.43;;;3.70;99.90;;;;;;5095364;28;20256;-60
2023/03/08 12:42:14;;;;;;;22.27;19.87;;;3.40;99.90;;;;;;5095653;28;20217;-60
2023/03/08 12:44:40;;;;;;;22.40;19.03;;;3.60;99.90;;;;;;5095508;28;20173;-61
2023/03/08 12:47:14;;;;;;;25.83;21.03;;;3.60;99.90;;;;;;5095391;28;20196;-61
2023/03/08 12:49:44;;;;;;;23.37;19.63;;;3.70;99.90;;;;;;5095295;28;20174;-60
2023/03/08 12:52:19;;;;;;;23.90;21.03;;;3.80;99.90;;;;;;5094305;28;20185;-61
2023/03/08 12:55:01;;;;;;;24.00;20.23;;;3.50;99.90;;;;;;5095231;28;20170;-60